Time;durP1;ratioP1;P1;durP2;ratioP2;P2;SDS_P1;SDS_P2;PMS_P1;PMS_P2;Temp;Humidity;BMP_temperature;BMP_pressure;BME280_temperature;BME280_humidity;BME280_pressure;Samples;Min_cycle;Max_cycle;Signal;HPM_P1;HPM_P2
2021/10/22 00:00:57;;;;;;;2.00;0.63;;;9.60;99.90;;;;;;5069762;28;20735;-71
2021/10/22 00:03:24;;;;;;;2.90;0.70;;;9.60;99.90;;;;;;5052073;28;20210;-71
2021/10/22 00:05:51;;;;;;;1.47;0.73;;;9.60;99.90;;;;;;5061893;28;20226;-71
2021/10/22 00:08:18;;;;;;;1.90;0.67;;;9.60;99.90;;;;;;5061584;28;20220;-71
2021/10/22 00:10:45;;;;;;;2.03;0.70;;;9.60;99.90;;;;;;5038708;28;20219;-71
2021/10/22 00:13:13;;;;;;;2.00;0.60;;;9.70;99.90;;;;;;5051009;28;20220;-71
2021/10/22 00:15:40;;;;;;;1.70;0.63;;;9.70;99.90;;;;;;5043366;28;20664;-72
2021/10/22 00:18:08;;;;;;;2.37;1.07;;;9.70;99.90;;;;;;5052311;28;20194;-71
2021/10/22 00:20:35;;;;;;;1.50;0.40;;;9.80;99.90;;;;;;5050491;28;20196;-71
2021/10/22 00:23:02;;;;;;;0.53;0.40;;;9.70;99.90;;;;;;5045311;28;20204;-71
2021/10/22 00:25:29;;;;;;;2.17;0.40;;;9.70;99.90;;;;;;5044576;28;20205;-71
2021/10/22 00:27:56;;;;;;;0.73;0.50;;;9.60;99.90;;;;;;5049544;28;20726;-71
2021/10/22 00:30:23;;;;;;;1.23;0.37;;;9.50;99.90;;;;;;5058581;28;20305;-71
2021/10/22 00:32:50;;;;;;;0.37;0.30;;;9.40;99.90;;;;;;5052119;28;20210;-71
2021/10/22 00:35:19;;;;;;;2.93;0.40;;;9.30;99.90;;;;;;5050911;28;20217;-71
2021/10/22 00:37:46;;;;;;;0.33;0.30;;;9.20;99.90;;;;;;5051941;28;20204;-71
2021/10/22 00:40:13;;;;;;;0.50;0.40;;;9.20;99.90;;;;;;5051267;28;20283;-72
2021/10/22 00:42:40;;;;;;;0.67;0.40;;;9.10;99.90;;;;;;5068510;28;20211;-71
2021/10/22 00:45:09;;;;;;;0.83;0.50;;;9.10;99.90;;;;;;5033474;28;20203;-71
2021/10/22 00:47:36;;;;;;;0.30;0.30;;;9.00;99.90;;;;;;5050211;28;20694;-71
2021/10/22 00:50:03;;;;;;;1.20;0.50;;;8.90;99.90;;;;;;5039696;28;20291;-71
2021/10/22 00:52:32;;;;;;;0.77;0.40;;;8.90;99.90;;;;;;5051316;28;20216;-71
2021/10/22 00:54:59;;;;;;;0.40;0.30;;;8.80;99.90;;;;;;5068779;28;20281;-71
2021/10/22 00:57:26;;;;;;;0.47;0.37;;;8.80;99.90;;;;;;5050421;28;20278;-71
2021/10/22 00:59:53;;;;;;;0.20;0.20;;;8.80;99.90;;;;;;5050555;28;20200;-71
2021/10/22 01:02:20;;;;;;;2.13;0.40;;;8.80;99.90;;;;;;5050751;28;20686;-72
2021/10/22 01:04:48;;;;;;;0.57;0.30;;;8.70;99.90;;;;;;5068507;28;20954;-71
2021/10/22 01:07:16;;;;;;;1.13;0.50;;;8.70;99.90;;;;;;5068502;28;20297;-71
2021/10/22 01:09:46;;;;;;;0.23;0.23;;;8.70;99.90;;;;;;5050615;28;20203;-71
2021/10/22 01:12:14;;;;;;;0.43;0.27;;;8.60;99.90;;;;;;5036936;28;20227;-71
2021/10/22 01:14:41;;;;;;;1.07;0.40;;;8.60;99.90;;;;;;5050390;28;20198;-71
2021/10/22 01:17:37;;;;;;;0.37;0.30;;;8.60;99.90;;;;;;5044340;28;20212;-71
2021/10/22 01:20:07;;;;;;;0.87;0.40;;;8.60;99.90;;;;;;5045017;28;20197;-71
2021/10/22 01:22:36;;;;;;;0.73;0.30;;;8.50;99.90;;;;;;5060734;28;20259;-71
2021/10/22 01:25:04;;;;;;;0.77;0.47;;;8.50;99.90;;;;;;5063586;28;20572;-71
2021/10/22 01:27:33;;;;;;;0.50;0.40;;;8.40;99.90;;;;;;5049432;28;20660;-71
2021/10/22 01:30:01;;;;;;;0.53;0.40;;;8.40;99.90;;;;;;5066315;28;20234;-71
2021/10/22 01:32:28;;;;;;;1.33;0.47;;;8.40;99.90;;;;;;5050839;28;20200;-71
2021/10/22 01:34:55;;;;;;;1.13;0.50;;;8.30;99.90;;;;;;5068378;28;20567;-71
2021/10/22 01:37:21;;;;;;;0.67;0.40;;;8.30;99.90;;;;;;5050956;28;20215;-71
2021/10/22 01:39:50;;;;;;;0.73;0.67;;;8.30;99.90;;;;;;5068123;28;20333;-71
2021/10/22 01:42:17;;;;;;;1.43;0.30;;;8.30;99.90;;;;;;5050164;28;20287;-71
2021/10/22 01:44:45;;;;;;;0.37;0.37;;;8.30;99.90;;;;;;5036118;28;20284;-71
2021/10/22 01:47:12;;;;;;;1.33;0.60;;;8.30;99.90;;;;;;5048158;28;20224;-70
2021/10/22 01:49:40;;;;;;;3.60;0.50;;;8.30;99.90;;;;;;5053509;28;20263;-70
2021/10/22 01:52:07;;;;;;;0.30;0.30;;;8.30;99.90;;;;;;5058391;28;20492;-70
2021/10/22 01:54:34;;;;;;;1.43;0.50;;;8.30;99.90;;;;;;5064789;28;20263;-70
2021/10/22 01:57:03;;;;;;;0.30;0.30;;;8.30;99.90;;;;;;5051957;28;20215;-70
2021/10/22 01:59:30;;;;;;;0.80;0.40;;;8.40;99.90;;;;;;5067575;28;20685;-71
2021/10/22 02:01:57;;;;;;;2.40;0.50;;;8.50;99.90;;;;;;5049827;28;20313;-71
2021/10/22 02:04:24;;;;;;;0.60;0.60;;;8.50;99.90;;;;;;5067577;28;20289;-70
2021/10/22 02:06:51;;;;;;;0.93;0.53;;;8.50;99.90;;;;;;5045717;28;20189;-71
2021/10/22 02:09:19;;;;;;;0.70;0.40;;;8.40;99.90;;;;;;5054208;28;20224;-71
2021/10/22 02:11:47;;;;;;;2.67;0.70;;;8.40;99.90;;;;;;5064846;28;20199;-71
2021/10/22 02:14:16;;;;;;;1.27;0.50;;;8.50;99.90;;;;;;5058405;28;20197;-71
2021/10/22 02:16:43;;;;;;;2.00;0.67;;;8.40;99.90;;;;;;5049699;28;20728;-70
2021/10/22 02:19:10;;;;;;;1.53;0.47;;;8.40;99.90;;;;;;5072451;28;20197;-71
2021/10/22 02:21:39;;;;;;;0.73;0.30;;;8.40;99.90;;;;;;5052739;28;20204;-71
2021/10/22 02:24:06;;;;;;;0.50;0.30;;;8.50;99.90;;;;;;5059895;28;20199;-71
2021/10/22 02:26:34;;;;;;;1.50;0.80;;;8.50;99.90;;;;;;5052789;28;20246;-71
2021/10/22 02:29:01;;;;;;;0.87;0.40;;;8.50;99.90;;;;;;5053373;28;20231;-70
2021/10/22 02:31:30;;;;;;;3.17;0.60;;;8.60;99.90;;;;;;5055251;28;20297;-71
2021/10/22 02:33:57;;;;;;;1.93;0.73;;;8.60;99.90;;;;;;5052498;28;20201;-71
2021/10/22 02:36:24;;;;;;;1.33;0.60;;;8.70;99.90;;;;;;5047008;28;20264;-71
2021/10/22 02:38:51;;;;;;;0.50;0.50;;;8.70;99.90;;;;;;5052358;28;20191;-71
2021/10/22 02:41:18;;;;;;;1.10;0.50;;;8.80;99.90;;;;;;5052142;28;20315;-71
2021/10/22 02:43:47;;;;;;;1.57;0.47;;;8.80;99.90;;;;;;5037010;28;20216;-71
2021/10/22 02:46:14;;;;;;;4.70;0.80;;;8.70;99.90;;;;;;5049249;28;20687;-71
2021/10/22 02:48:42;;;;;;;2.50;0.90;;;8.70;99.90;;;;;;5043816;28;20568;-71
2021/10/22 02:51:09;;;;;;;3.73;0.70;;;8.70;99.90;;;;;;5071658;28;20200;-71
2021/10/22 02:53:37;;;;;;;2.83;0.90;;;8.70;99.90;;;;;;5052299;28;20282;-71
2021/10/22 02:56:05;;;;;;;2.63;0.90;;;8.70;99.90;;;;;;5052436;28;20197;-71
2021/10/22 02:58:32;;;;;;;2.20;0.80;;;8.60;99.90;;;;;;5052447;28;20205;-71
2021/10/22 03:00:59;;;;;;;0.40;0.40;;;8.60;99.90;;;;;;5051381;28;20206;-71
2021/10/22 03:03:26;;;;;;;1.37;0.60;;;8.50;99.90;;;;;;5053214;28;20224;-71
2021/10/22 03:05:55;;;;;;;2.77;0.70;;;8.50;99.90;;;;;;5047923;28;20204;-71
2021/10/22 03:08:22;;;;;;;2.87;0.70;;;8.40;99.90;;;;;;5070262;28;20217;-71
2021/10/22 03:10:49;;;;;;;2.30;0.63;;;8.40;99.90;;;;;;5069841;28;20201;-71
2021/10/22 03:13:16;;;;;;;1.40;0.57;;;8.40;99.90;;;;;;5052577;28;20211;-71
2021/10/22 03:15:43;;;;;;;3.57;0.70;;;8.40;99.90;;;;;;5043933;28;20208;-71
2021/10/22 03:18:10;;;;;;;2.23;0.60;;;8.30;99.90;;;;;;5065055;28;20200;-70
2021/10/22 03:20:37;;;;;;;3.47;0.90;;;8.30;99.90;;;;;;5069472;28;20200;-71
2021/10/22 03:23:06;;;;;;;1.43;0.60;;;8.30;99.90;;;;;;5046408;28;20201;-71
2021/10/22 03:25:34;;;;;;;1.70;0.70;;;8.30;99.90;;;;;;5051376;28;20199;-70
2021/10/22 03:28:04;;;;;;;2.80;0.63;;;8.30;99.90;;;;;;5044756;28;20734;-70
2021/10/22 03:30:31;;;;;;;1.63;0.60;;;8.30;99.90;;;;;;5069077;28;20672;-70
2021/10/22 03:32:58;;;;;;;2.17;0.80;;;8.20;99.90;;;;;;5070886;28;20193;-70
2021/10/22 03:35:25;;;;;;;1.77;0.60;;;8.20;99.90;;;;;;5052500;28;20971;-70
2021/10/22 03:37:53;;;;;;;1.57;0.70;;;8.20;99.90;;;;;;5052243;28;20225;-70
2021/10/22 03:40:22;;;;;;;2.70;0.90;;;8.20;99.90;;;;;;5070310;28;20194;-70
2021/10/22 03:42:52;;;;;;;0.80;0.60;;;8.20;99.90;;;;;;5051402;28;20888;-70
2021/10/22 03:45:19;;;;;;;1.43;0.50;;;8.20;99.90;;;;;;5042657;28;20391;-70
2021/10/22 03:47:46;;;;;;;1.57;0.50;;;8.20;99.90;;;;;;5051894;28;20212;-70
2021/10/22 03:50:16;;;;;;;3.53;0.80;;;8.20;99.90;;;;;;5070388;28;20603;-70
2021/10/22 03:52:44;;;;;;;1.93;0.80;;;8.20;99.90;;;;;;5052669;28;20298;-70
2021/10/22 03:55:11;;;;;;;1.23;0.70;;;8.20;99.90;;;;;;5052008;28;20204;-70
2021/10/22 03:57:40;;;;;;;1.50;0.60;;;8.20;99.90;;;;;;5056075;28;20661;-70
2021/10/22 04:00:09;;;;;;;2.57;0.70;;;8.20;99.90;;;;;;5050842;28;20229;-71
2021/10/22 04:02:40;;;;;;;1.97;0.70;;;8.20;99.90;;;;;;5051080;28;20194;-72
2021/10/22 04:05:08;;;;;;;2.93;1.00;;;8.20;99.90;;;;;;5049330;28;20214;-72
2021/10/22 04:07:36;;;;;;;2.40;0.70;;;8.20;99.90;;;;;;5044768;28;20213;-72
2021/10/22 04:10:05;;;;;;;1.93;0.93;;;8.20;99.90;;;;;;5050271;28;20224;-70
2021/10/22 04:12:32;;;;;;;1.37;0.60;;;8.20;99.90;;;;;;5040085;28;20208;-69
2021/10/22 04:15:01;;;;;;;0.40;0.40;;;8.10;99.90;;;;;;5046936;28;20289;-71
2021/10/22 04:17:29;;;;;;;2.57;1.10;;;8.20;99.90;;;;;;5063415;28;20280;-71
2021/10/22 04:19:56;;;;;;;3.10;0.63;;;8.20;99.90;;;;;;5056052;28;20286;-71
2021/10/22 04:22:24;;;;;;;2.83;1.10;;;8.20;99.90;;;;;;5043006;28;20598;-70
2021/10/22 04:24:51;;;;;;;0.87;0.60;;;8.20;99.90;;;;;;5041848;28;20205;-71
2021/10/22 04:27:18;;;;;;;2.90;0.90;;;8.30;99.90;;;;;;5067001;28;20200;-71
2021/10/22 04:29:44;;;;;;;3.83;0.80;;;8.30;99.90;;;;;;5067434;28;20295;-71
2021/10/22 04:32:13;;;;;;;2.93;0.90;;;8.30;99.90;;;;;;5048686;28;20636;-71
2021/10/22 04:34:40;;;;;;;2.73;0.90;;;8.30;99.90;;;;;;5050071;28;20315;-71
2021/10/22 04:37:25;;;;;;;3.97;1.23;;;8.40;99.90;;;;;;5069425;28;20311;-71
2021/10/22 04:42:41;;;;;;;0.90;0.60;;;8.40;99.90;;;;;;5047910;28;20232;-71
2021/10/22 04:45:09;;;;;;;4.50;0.73;;;8.40;99.90;;;;;;5041960;28;20209;-71
2021/10/22 04:47:38;;;;;;;1.97;0.90;;;8.40;99.90;;;;;;5045473;28;20541;-71
2021/10/22 04:50:07;;;;;;;2.50;0.70;;;8.50;99.90;;;;;;5051445;28;20225;-71
2021/10/22 04:52:34;;;;;;;0.80;0.40;;;8.50;99.90;;;;;;5050329;28;20696;-71
2021/10/22 04:55:07;;;;;;;0.83;0.67;;;8.60;99.90;;;;;;5051474;28;20286;-71
2021/10/22 04:57:34;;;;;;;1.83;0.50;;;8.50;99.90;;;;;;5065939;28;20201;-71
2021/10/22 05:00:01;;;;;;;1.03;0.50;;;8.60;99.90;;;;;;5068162;28;21079;-71
2021/10/22 05:02:28;;;;;;;1.70;0.60;;;8.60;99.90;;;;;;5068535;28;20564;-71
2021/10/22 05:04:56;;;;;;;3.73;1.13;;;8.60;99.90;;;;;;5051314;28;20205;-71
2021/10/22 05:07:23;;;;;;;3.03;0.83;;;8.70;99.90;;;;;;5068516;28;20194;-70
2021/10/22 05:09:50;;;;;;;3.93;1.00;;;8.70;99.90;;;;;;5061336;28;20218;-71
2021/10/22 05:12:17;;;;;;;2.23;0.73;;;8.80;99.90;;;;;;5044706;28;20219;-71
2021/10/22 05:14:44;;;;;;;2.40;0.80;;;8.80;99.90;;;;;;5044459;28;20231;-71
2021/10/22 05:17:11;;;;;;;1.60;0.90;;;8.80;99.90;;;;;;5048336;28;20194;-70
2021/10/22 05:19:38;;;;;;;1.40;0.73;;;8.80;99.90;;;;;;5037487;28;20538;-70
2021/10/22 05:22:06;;;;;;;1.63;0.70;;;8.90;99.90;;;;;;5051251;28;20283;-70
2021/10/22 05:24:33;;;;;;;3.30;0.83;;;8.90;99.90;;;;;;5031224;28;20210;-71
2021/10/22 05:27:01;;;;;;;6.47;1.10;;;9.00;99.90;;;;;;5048337;28;20303;-71
2021/10/22 05:29:28;;;;;;;2.33;0.97;;;9.00;99.90;;;;;;5047597;28;20715;-70
2021/10/22 05:31:55;;;;;;;1.67;0.80;;;9.00;99.90;;;;;;5031071;28;20868;-70
2021/10/22 05:34:22;;;;;;;0.93;0.63;;;9.00;99.90;;;;;;5042943;28;20288;-71
2021/10/22 05:36:49;;;;;;;1.20;0.70;;;9.00;99.90;;;;;;5045194;28;20212;-70
2021/10/22 05:39:19;;;;;;;1.30;0.80;;;9.10;99.90;;;;;;5050012;28;20203;-71
2021/10/22 05:41:47;;;;;;;1.07;0.60;;;9.20;99.90;;;;;;5068062;28;20742;-71
2021/10/22 05:44:14;;;;;;;2.47;1.13;;;9.20;99.90;;;;;;5049887;28;20550;-70
2021/10/22 05:46:41;;;;;;;2.67;1.13;;;9.20;99.90;;;;;;5067971;28;20228;-70
2021/10/22 05:49:08;;;;;;;2.90;1.30;;;9.20;99.90;;;;;;5050192;28;20235;-71
2021/10/22 05:51:36;;;;;;;2.13;1.33;;;9.20;99.90;;;;;;5050766;28;20734;-71
2021/10/22 05:54:03;;;;;;;2.40;1.10;;;9.20;99.90;;;;;;5050036;28;20323;-71
2021/10/22 05:56:31;;;;;;;2.10;0.80;;;9.20;99.90;;;;;;5067075;28;20193;-71
2021/10/22 05:58:59;;;;;;;1.23;0.80;;;9.20;99.90;;;;;;5049421;28;20216;-71
2021/10/22 06:01:26;;;;;;;0.60;0.60;;;9.30;99.90;;;;;;5049991;28;20624;-71
2021/10/22 06:03:52;;;;;;;2.23;0.60;;;9.30;99.90;;;;;;5068248;28;20197;-71
2021/10/22 06:06:19;;;;;;;1.50;0.60;;;9.30;99.90;;;;;;5056829;28;20193;-71
2021/10/22 06:08:47;;;;;;;1.17;0.80;;;9.30;99.90;;;;;;5029750;28;20229;-71
2021/10/22 06:11:14;;;;;;;0.50;0.30;;;9.30;99.90;;;;;;5048639;28;20217;-71
2021/10/22 06:13:43;;;;;;;1.07;0.40;;;9.40;99.90;;;;;;5048729;28;20694;-72
2021/10/22 06:16:11;;;;;;;0.63;0.50;;;9.40;99.90;;;;;;5046873;28;20194;-71
2021/10/22 06:18:45;;;;;;;0.30;0.30;;;9.50;99.90;;;;;;5056466;28;20284;-71
2021/10/22 06:21:20;;;;;;;0.47;0.47;;;9.50;99.90;;;;;;5043756;28;20688;-71
2021/10/22 06:23:59;;;;;;;0.50;0.40;;;9.50;99.90;;;;;;5049137;28;20670;-71
2021/10/22 06:26:31;;;;;;;5.93;1.57;;;9.60;99.90;;;;;;5039633;28;20314;-71
2021/10/22 06:29:00;;;;;;;3.50;1.00;;;9.50;99.90;;;;;;5050472;28;20245;-71
2021/10/22 06:31:27;;;;;;;2.80;0.80;;;9.50;99.90;;;;;;5047951;28;20252;-71
2021/10/22 06:33:54;;;;;;;7.53;1.33;;;9.50;99.90;;;;;;5047622;28;20377;-68
2021/10/22 06:36:22;;;;;;;5.73;1.27;;;9.50;99.90;;;;;;5043370;28;20278;-72
2021/10/22 06:38:49;;;;;;;1.60;0.60;;;9.50;99.90;;;;;;5060204;28;20285;-71
2021/10/22 06:41:17;;;;;;;1.80;0.80;;;9.50;99.90;;;;;;5038694;28;20325;-72
2021/10/22 06:43:45;;;;;;;3.67;0.70;;;9.50;99.90;;;;;;5058529;28;20278;-71
2021/10/22 06:46:15;;;;;;;1.50;0.80;;;9.60;99.90;;;;;;5061770;28;20856;-72
2021/10/22 06:48:43;;;;;;;0.40;0.40;;;9.60;99.90;;;;;;5043696;28;20221;-72
2021/10/22 06:51:11;;;;;;;1.90;0.60;;;9.60;99.90;;;;;;5041978;28;20869;-73
2021/10/22 06:53:39;;;;;;;3.03;0.90;;;9.60;99.90;;;;;;5060875;28;20250;-72
2021/10/22 06:56:07;;;;;;;1.67;0.67;;;9.70;99.90;;;;;;5062939;28;20304;-73
2021/10/22 06:58:34;;;;;;;0.70;0.60;;;9.60;99.90;;;;;;5043663;28;20561;-72
2021/10/22 07:01:01;;;;;;;2.97;0.70;;;9.70;99.90;;;;;;5047843;28;20223;-71
2021/10/22 07:03:38;;;;;;;1.50;0.60;;;9.70;99.90;;;;;;5040618;28;20203;-72
2021/10/22 07:08:51;;;;;;;2.37;0.80;;;9.80;99.90;;;;;;5040324;28;20201;-73
2021/10/22 07:11:19;;;;;;;1.20;0.50;;;9.80;99.90;;;;;;5063976;28;20804;-72
2021/10/22 07:13:50;;;;;;;0.80;0.77;;;9.80;99.90;;;;;;5045028;28;20201;-72
2021/10/22 07:16:18;;;;;;;1.13;0.90;;;9.90;99.90;;;;;;5046587;28;20706;-73
2021/10/22 07:18:47;;;;;;;1.23;0.60;;;9.90;99.90;;;;;;5047003;28;20322;-72
2021/10/22 07:21:16;;;;;;;1.37;0.80;;;10.00;99.90;;;;;;5060783;28;20223;-72
2021/10/22 07:23:45;;;;;;;1.33;0.73;;;10.00;99.90;;;;;;5040307;28;20290;-72
2021/10/22 07:26:12;;;;;;;1.90;0.90;;;10.00;99.90;;;;;;5062269;28;20199;-73
2021/10/22 07:28:39;;;;;;;1.63;0.90;;;10.10;99.90;;;;;;5038093;28;20298;-72
2021/10/22 07:31:10;;;;;;;2.43;0.90;;;10.20;99.90;;;;;;5044739;28;20995;-72
2021/10/22 07:33:38;;;;;;;1.93;1.10;;;10.20;99.90;;;;;;5045460;28;20287;-73
2021/10/22 07:36:08;;;;;;;1.03;0.83;;;10.30;99.90;;;;;;5054778;28;20196;-73
2021/10/22 07:38:36;;;;;;;3.23;0.97;;;10.40;99.90;;;;;;5040570;28;20289;-73
2021/10/22 07:41:03;;;;;;;1.87;0.80;;;10.50;99.90;;;;;;5059461;28;20204;-73
2021/10/22 07:43:31;;;;;;;1.43;0.80;;;10.50;99.90;;;;;;5046797;28;20201;-73
2021/10/22 07:45:59;;;;;;;1.13;1.03;;;10.50;99.90;;;;;;5061969;28;20196;-73
2021/10/22 07:48:26;;;;;;;3.63;1.30;;;10.50;99.90;;;;;;5038482;28;20197;-73
2021/10/22 07:50:53;;;;;;;1.77;1.00;;;10.50;99.90;;;;;;5040731;28;20226;-73
2021/10/22 07:53:22;;;;;;;3.10;1.02;;;10.50;99.90;;;;;;5060806;28;20519;-73
2021/10/22 07:55:49;;;;;;;1.77;0.90;;;10.50;99.90;;;;;;5062631;28;20279;-72
2021/10/22 07:58:16;;;;;;;3.63;1.20;;;10.70;99.90;;;;;;5047203;28;20196;-73
2021/10/22 08:00:43;;;;;;;1.67;1.00;;;10.80;99.90;;;;;;5043320;28;20197;-73
2021/10/22 08:03:11;;;;;;;2.13;1.10;;;11.00;99.90;;;;;;5046904;28;20201;-73
2021/10/22 08:05:38;;;;;;;2.20;1.00;;;11.10;99.90;;;;;;5058719;28;21028;-72
2021/10/22 08:08:06;;;;;;;2.73;1.00;;;11.30;99.90;;;;;;5043465;28;20255;-72
2021/10/22 08:10:35;;;;;;;3.10;1.10;;;11.50;99.90;;;;;;5046730;28;20223;-71
2021/10/22 08:13:04;;;;;;;1.88;0.90;;;11.60;99.90;;;;;;5045143;28;20625;-71
2021/10/22 08:15:32;;;;;;;2.72;1.10;;;11.60;99.90;;;;;;5043917;28;20808;-71
2021/10/22 08:18:01;;;;;;;3.03;1.00;;;11.60;99.90;;;;;;5064297;28;20272;-72
2021/10/22 08:20:32;;;;;;;1.50;1.03;;;11.70;99.90;;;;;;5046545;28;20952;-72
2021/10/22 08:22:59;;;;;;;3.40;1.20;;;11.80;99.50;;;;;;5055909;28;20557;-72
2021/10/22 08:25:26;;;;;;;2.33;1.00;;;11.90;99.00;;;;;;5044067;28;20204;-73
2021/10/22 08:27:55;;;;;;;3.80;1.20;;;12.00;98.80;;;;;;5038383;28;20288;-72
2021/10/22 08:30:26;;;;;;;2.30;0.90;;;12.20;98.30;;;;;;5039143;28;20316;-72
2021/10/22 08:32:56;;;;;;;2.70;0.80;;;12.10;98.20;;;;;;5040883;28;20697;-72
2021/10/22 08:35:25;;;;;;;1.23;0.87;;;12.10;98.30;;;;;;5043584;28;20203;-73
2021/10/22 08:37:52;;;;;;;1.37;0.90;;;12.20;98.30;;;;;;5039650;28;20221;-73
2021/10/22 08:40:21;;;;;;;2.97;1.10;;;12.20;98.10;;;;;;5035972;28;20822;-72
2021/10/22 08:42:49;;;;;;;2.93;0.97;;;12.40;97.70;;;;;;5058943;28;20199;-71
2021/10/22 08:45:18;;;;;;;2.10;1.00;;;12.50;97.40;;;;;;5041623;28;20208;-71
2021/10/22 08:47:46;;;;;;;2.00;0.80;;;12.80;97.00;;;;;;5044206;28;20210;-72
2021/10/22 08:50:16;;;;;;;2.50;1.07;;;13.00;96.50;;;;;;5042792;28;20229;-72
2021/10/22 08:52:44;;;;;;;3.20;1.00;;;13.30;96.10;;;;;;5044889;28;20320;-72
2021/10/22 08:55:13;;;;;;;4.07;1.10;;;13.40;95.70;;;;;;5045012;28;20287;-72
2021/10/22 08:57:42;;;;;;;2.40;0.83;;;13.60;95.30;;;;;;5063041;28;20192;-72
2021/10/22 09:00:11;;;;;;;6.03;1.00;;;13.70;94.80;;;;;;5039827;28;20200;-72
2021/10/22 09:02:40;;;;;;;3.17;1.00;;;13.80;94.50;;;;;;5064091;28;20284;-72
2021/10/22 09:05:18;;;;;;;3.13;1.13;;;13.80;93.60;;;;;;5045374;28;20211;-72
2021/10/22 09:07:47;;;;;;;1.80;1.07;;;13.80;93.50;;;;;;5044374;28;20227;-72
2021/10/22 09:10:17;;;;;;;2.57;0.93;;;13.90;93.40;;;;;;5045272;28;20312;-71
2021/10/22 09:12:47;;;;;;;2.87;1.30;;;14.20;92.70;;;;;;5043197;28;20205;-72
2021/10/22 09:15:17;;;;;;;1.43;0.73;;;14.40;92.00;;;;;;5040482;28;20292;-73
2021/10/22 09:17:47;;;;;;;2.30;1.00;;;14.30;91.80;;;;;;5043801;28;20289;-72
2021/10/22 09:20:15;;;;;;;2.50;0.77;;;14.30;91.30;;;;;;5042821;28;20247;-72
2021/10/22 09:22:49;;;;;;;1.95;0.80;;;14.20;91.40;;;;;;5040045;28;20574;-72
2021/10/22 09:25:19;;;;;;;2.00;0.90;;;14.10;91.70;;;;;;5043375;28;20206;-72
2021/10/22 09:27:49;;;;;;;1.40;0.77;;;14.20;91.70;;;;;;5042002;28;20205;-73
2021/10/22 09:30:45;;;;;;;1.87;0.80;;;14.30;91.30;;;;;;5042597;28;20237;-73
2021/10/22 09:33:18;;;;;;;2.57;1.00;;;14.30;90.70;;;;;;4960410;28;20300;-72
2021/10/22 09:35:50;;;;;;;1.97;0.93;;;14.40;90.40;;;;;;4960621;28;20198;-72
2021/10/22 09:38:20;;;;;;;1.40;0.90;;;14.60;90.10;;;;;;4963408;28;20207;-73
2021/10/22 09:40:50;;;;;;;1.20;0.80;;;14.70;89.80;;;;;;4956643;28;20233;-72
2021/10/22 09:43:20;;;;;;;1.93;1.00;;;14.80;89.40;;;;;;4960969;28;20205;-72
2021/10/22 09:45:48;;;;;;;0.87;0.70;;;14.80;88.80;;;;;;4980231;28;20210;-72
2021/10/22 09:48:43;;;;;;;3.70;0.70;;;14.90;88.60;;;;;;4979304;28;20296;-73
2021/10/22 09:51:28;;;;;;;2.40;1.23;;;15.10;88.20;;;;;;4926959;29;20250;-72
2021/10/22 09:54:00;;;;;;;1.73;1.07;;;15.20;87.40;;;;;;4928964;29;20239;-73
2021/10/22 09:56:28;;;;;;;2.83;0.73;;;15.20;86.20;;;;;;4934638;29;20207;-72
2021/10/22 09:59:00;;;;;;;1.40;0.90;;;15.10;85.70;;;;;;4923019;29;20239;-73
2021/10/22 10:01:38;;;;;;;2.47;1.10;;;15.00;86.10;;;;;;4924588;29;20459;-73
2021/10/22 10:04:08;;;;;;;2.07;1.00;;;15.00;86.30;;;;;;4939617;29;20220;-73
2021/10/22 10:06:37;;;;;;;1.65;0.90;;;14.90;86.20;;;;;;4939846;29;20440;-73
2021/10/22 10:09:06;;;;;;;1.40;0.90;;;14.80;86.50;;;;;;4953029;28;20257;-73
2021/10/22 10:11:33;;;;;;;1.60;0.90;;;14.70;86.50;;;;;;4979541;28;20638;-74
2021/10/22 10:14:01;;;;;;;2.53;0.90;;;14.70;86.70;;;;;;4988317;28;20674;-72
2021/10/22 10:16:29;;;;;;;1.90;0.90;;;14.80;86.80;;;;;;4982088;28;20559;-72
2021/10/22 10:19:02;;;;;;;1.23;0.90;;;14.80;85.60;;;;;;4981430;28;20678;-72
2021/10/22 10:21:34;;;;;;;1.63;1.00;;;14.70;85.40;;;;;;4982296;28;20202;-73
2021/10/22 10:24:02;;;;;;;2.20;1.10;;;14.70;85.70;;;;;;4978369;28;20332;-74
2021/10/22 10:26:31;;;;;;;0.97;0.80;;;14.70;85.80;;;;;;5000657;28;20206;-73
2021/10/22 10:29:00;;;;;;;1.50;0.93;;;14.70;85.80;;;;;;5020531;28;20209;-73
2021/10/22 10:31:37;;;;;;;3.10;1.20;;;14.60;85.10;;;;;;5021077;28;20275;-74
2021/10/22 10:34:51;;;;;;;5.03;1.23;;;14.60;84.70;;;;;;5022778;28;20204;-73
2021/10/22 10:37:28;;;;;;;2.43;1.00;;;14.70;84.80;;;;;;5022677;28;20239;-73
2021/10/22 10:40:14;;;;;;;5.73;1.40;;;14.90;85.20;;;;;;5016308;28;20510;-73
2021/10/22 10:42:45;;;;;;;2.90;1.20;;;15.00;83.70;;;;;;5022380;28;20220;-73
2021/10/22 10:45:38;;;;;;;2.27;1.10;;;15.20;83.90;;;;;;5021707;28;20585;-74
2021/10/22 10:48:06;;;;;;;6.90;1.70;;;15.40;82.50;;;;;;5036641;28;20733;-73
2021/10/22 10:50:39;;;;;;;2.67;1.00;;;15.50;81.60;;;;;;5022047;28;20231;-73
2021/10/22 10:53:09;;;;;;;3.50;1.37;;;15.60;81.30;;;;;;5033110;28;20691;-73
2021/10/22 10:55:42;;;;;;;4.60;1.60;;;15.70;80.00;;;;;;5046170;28;20211;-73
2021/10/22 10:58:21;;;;;;;2.47;1.40;;;15.60;78.80;;;;;;5049662;28;20213;-73
2021/10/22 11:00:51;;;;;;;4.07;1.40;;;15.50;79.30;;;;;;5044458;28;20200;-73
2021/10/22 11:03:26;;;;;;;2.60;1.13;;;15.50;78.90;;;;;;5042033;28;20201;-73
2021/10/22 11:06:13;;;;;;;2.73;1.40;;;15.50;79.10;;;;;;5042033;28;20294;-73
2021/10/22 11:08:52;;;;;;;3.60;1.27;;;15.50;78.80;;;;;;5044963;28;20291;-73
2021/10/22 11:11:38;;;;;;;2.28;1.20;;;15.60;78.50;;;;;;5063979;28;20541;-73
2021/10/22 11:14:19;;;;;;;3.27;1.50;;;15.70;78.60;;;;;;5061199;28;20195;-72
2021/10/22 11:16:49;;;;;;;5.47;1.60;;;15.70;77.60;;;;;;5063494;28;20207;-73
2021/10/22 11:19:19;;;;;;;3.67;1.20;;;15.60;76.70;;;;;;5045881;28;20736;-73
2021/10/22 11:21:48;;;;;;;3.27;1.30;;;15.40;76.80;;;;;;5040076;28;20197;-73
2021/10/22 11:24:18;;;;;;;5.10;1.30;;;15.10;76.90;;;;;;5059559;28;20204;-74
2021/10/22 11:26:53;;;;;;;3.93;1.10;;;14.90;76.90;;;;;;5047538;28;20197;-74
2021/10/22 11:29:22;;;;;;;3.70;1.10;;;14.70;77.50;;;;;;5043141;28;20208;-73
2021/10/22 11:31:53;;;;;;;3.40;1.50;;;14.60;78.00;;;;;;5046831;28;20265;-74
2021/10/22 11:34:21;;;;;;;4.77;1.33;;;14.50;78.30;;;;;;5047571;28;20205;-73
2021/10/22 11:36:52;;;;;;;4.47;1.23;;;14.40;78.50;;;;;;5065372;28;20216;-73
2021/10/22 11:39:23;;;;;;;2.97;1.00;;;14.40;78.80;;;;;;5046627;28;20205;-73
2021/10/22 11:42:02;;;;;;;3.27;1.37;;;14.40;79.00;;;;;;5044369;28;20286;-73
2021/10/22 11:44:29;;;;;;;2.40;1.30;;;14.40;79.00;;;;;;5045817;28;20323;-73
2021/10/22 11:46:56;;;;;;;2.47;1.10;;;14.40;79.20;;;;;;5062213;28;20190;-74
2021/10/22 11:49:27;;;;;;;1.97;1.10;;;14.50;79.60;;;;;;5040518;28;20204;-73
2021/10/22 11:51:56;;;;;;;2.17;0.90;;;14.50;79.60;;;;;;5045898;28;20547;-72
2021/10/22 11:54:34;;;;;;;1.60;0.90;;;14.50;80.40;;;;;;5063035;28;20232;-73
2021/10/22 11:57:04;;;;;;;3.20;1.10;;;14.60;80.80;;;;;;5059283;28;20202;-73
2021/10/22 11:59:32;;;;;;;3.63;1.10;;;14.60;80.60;;;;;;5064433;28;20229;-73
2021/10/22 12:02:08;;;;;;;3.80;1.50;;;14.50;80.70;;;;;;5063923;28;20240;-73
2021/10/22 12:04:36;;;;;;;2.50;1.20;;;14.50;80.80;;;;;;5040695;28;20235;-73
2021/10/22 12:07:08;;;;;;;4.53;1.00;;;14.40;81.70;;;;;;5045071;28;20195;-73
2021/10/22 12:09:38;;;;;;;2.10;1.10;;;14.30;82.10;;;;;;5047506;28;20190;-73
2021/10/22 12:12:08;;;;;;;2.17;0.90;;;14.30;81.70;;;;;;5061137;28;20290;-74
2021/10/22 12:14:40;;;;;;;1.23;0.80;;;14.30;81.90;;;;;;5043776;28;20306;-73
2021/10/22 12:17:10;;;;;;;2.93;1.00;;;14.10;82.10;;;;;;5063304;28;20205;-73
2021/10/22 12:19:40;;;;;;;3.10;1.10;;;14.10;82.80;;;;;;5061269;28;20301;-75
2021/10/22 12:22:07;;;;;;;1.77;1.00;;;14.00;83.20;;;;;;5042514;28;20208;-74
2021/10/22 12:24:45;;;;;;;1.70;1.10;;;13.80;83.80;;;;;;5038832;28;20713;-74
2021/10/22 12:27:12;;;;;;;1.87;1.07;;;13.70;84.50;;;;;;5045051;28;20315;-73
2021/10/22 12:29:58;;;;;;;2.57;1.10;;;13.50;85.10;;;;;;5046175;28;20198;-74
2021/10/22 12:32:50;;;;;;;1.87;0.80;;;13.30;85.80;;;;;;5045242;28;20232;-73
2021/10/22 12:35:24;;;;;;;0.97;0.77;;;13.00;86.60;;;;;;5043784;28;20202;-73
2021/10/22 12:38:01;;;;;;;0.70;0.70;;;13.00;87.30;;;;;;5046951;28;20190;-72
2021/10/22 12:40:32;;;;;;;2.40;1.07;;;12.90;87.90;;;;;;5046389;28;20597;-71
2021/10/22 12:43:14;;;;;;;1.03;0.63;;;12.80;88.50;;;;;;5046154;28;20205;-71
2021/10/22 12:45:50;;;;;;;2.63;1.00;;;12.70;89.10;;;;;;5060560;28;20280;-71
2021/10/22 12:48:19;;;;;;;2.90;0.90;;;12.60;90.10;;;;;;5043183;28;20205;-72
2021/10/22 12:50:47;;;;;;;1.13;0.87;;;12.40;90.00;;;;;;5045799;28;20222;-72
2021/10/22 12:53:19;;;;;;;1.57;1.00;;;12.40;90.20;;;;;;5045076;28;20302;-72
2021/10/22 12:56:00;;;;;;;2.00;0.80;;;12.30;90.80;;;;;;5046468;28;20304;-71
2021/10/22 12:58:27;;;;;;;3.00;1.30;;;12.30;90.60;;;;;;5062031;28;20196;-71
2021/10/22 13:01:18;;;;;;;1.73;0.97;;;12.20;90.80;;;;;;5042837;28;20195;-73
2021/10/22 13:03:47;;;;;;;2.80;0.90;;;12.10;91.00;;;;;;4967100;28;20210;-72
2021/10/22 13:06:31;;;;;;;1.30;0.80;;;12.10;91.20;;;;;;4982447;28;20730;-72
2021/10/22 13:09:20;;;;;;;1.13;0.90;;;12.00;91.40;;;;;;4965190;28;20474;-72
2021/10/22 13:12:22;;;;;;;0.93;0.83;;;12.00;91.60;;;;;;4979165;28;20771;-72